sensor_id;sensor_type;location;lat;lon;timestamp;P1;durP1;ratioP1;P2;durP2;ratioP2
19495;SDS011;9888;48.606;9.630;2023-07-20T00:00:17;1999.90;;;999.90;;
19495;SDS011;9888;48.606;9.630;2023-07-20T00:02:50;1999.90;;;999.90;;
19495;SDS011;9888;48.606;9.630;2023-07-20T00:05:29;1999.90;;;999.90;;
19495;SDS011;9888;48.606;9.630;2023-07-20T00:08:02;1999.90;;;999.90;;
19495;SDS011;9888;48.606;9.630;2023-07-20T00:10:29;1999.90;;;999.90;;
19495;SDS011;9888;48.606;9.630;2023-07-20T00:12:59;1999.90;;;999.90;;
19495;SDS011;9888;48.606;9.630;2023-07-20T00:15:29;1999.90;;;999.90;;
19495;SDS011;9888;48.606;9.630;2023-07-20T00:21:19;1999.90;;;999.90;;
19495;SDS011;9888;48.606;9.630;2023-07-20T00:23:47;453.80;;;172.43;;
19495;SDS011;9888;48.606;9.630;2023-07-20T00:26:15;1999.90;;;999.90;;
19495;SDS011;9888;48.606;9.630;2023-07-20T00:32:09;1999.90;;;999.90;;
19495;SDS011;9888;48.606;9.630;2023-07-20T00:34:39;1999.90;;;999.90;;
19495;SDS011;9888;48.606;9.630;2023-07-20T00:40:38;1999.90;;;999.90;;
19495;SDS011;9888;48.606;9.630;2023-07-20T00:43:08;1999.90;;;999.90;;
19495;SDS011;9888;48.606;9.630;2023-07-20T00:45:38;1999.90;;;999.90;;
19495;SDS011;9888;48.606;9.630;2023-07-20T00:48:07;1999.90;;;999.90;;
19495;SDS011;9888;48.606;9.630;2023-07-20T00:50:37;1999.90;;;999.90;;
19495;SDS011;9888;48.606;9.630;2023-07-20T00:53:14;1999.90;;;999.90;;
19495;SDS011;9888;48.606;9.630;2023-07-20T00:58:35;1999.90;;;999.90;;
19495;SDS011;9888;48.606;9.630;2023-07-20T01:01:03;1999.90;;;999.90;;
19495;SDS011;9888;48.606;9.630;2023-07-20T01:04:10;1999.90;;;999.90;;
19495;SDS011;9888;48.606;9.630;2023-07-20T01:09:16;1999.90;;;999.90;;
19495;SDS011;9888;48.606;9.630;2023-07-20T01:12:00;1999.90;;;999.90;;
19495;SDS011;9888;48.606;9.630;2023-07-20T01:14:34;1999.90;;;999.90;;
19495;SDS011;9888;48.606;9.630;2023-07-20T01:29:38;1999.90;;;999.90;;
19495;SDS011;9888;48.606;9.630;2023-07-20T01:39:07;1999.90;;;999.90;;
19495;SDS011;9888;48.606;9.630;2023-07-20T01:41:35;1999.90;;;999.90;;
19495;SDS011;9888;48.606;9.630;2023-07-20T01:44:05;1999.90;;;999.90;;
19495;SDS011;9888;48.606;9.630;2023-07-20T01:46:32;1999.90;;;999.90;;
19495;SDS011;9888;48.606;9.630;2023-07-20T01:48:58;1999.90;;;999.90;;
19495;SDS011;9888;48.606;9.630;2023-07-20T01:51:26;1999.90;;;999.90;;
19495;SDS011;9888;48.606;9.630;2023-07-20T01:53:54;1999.90;;;999.90;;
19495;SDS011;9888;48.606;9.630;2023-07-20T01:56:27;1999.90;;;999.90;;
19495;SDS011;9888;48.606;9.630;2023-07-20T01:58:54;1999.90;;;999.90;;
19495;SDS011;9888;48.606;9.630;2023-07-20T02:01:21;1999.90;;;999.90;;
19495;SDS011;9888;48.606;9.630;2023-07-20T02:03:54;1999.90;;;999.90;;
19495;SDS011;9888;48.606;9.630;2023-07-20T02:06:22;1999.90;;;999.90;;
19495;SDS011;9888;48.606;9.630;2023-07-20T02:08:50;1999.90;;;999.90;;
19495;SDS011;9888;48.606;9.630;2023-07-20T02:11:17;1999.90;;;999.90;;
19495;SDS011;9888;48.606;9.630;2023-07-20T02:13:44;1999.90;;;999.90;;
19495;SDS011;9888;48.606;9.630;2023-07-20T02:16:12;1999.90;;;999.90;;
19495;SDS011;9888;48.606;9.630;2023-07-20T02:18:40;1999.90;;;999.90;;
19495;SDS011;9888;48.606;9.630;2023-07-20T02:21:08;1999.90;;;999.90;;
19495;SDS011;9888;48.606;9.630;2023-07-20T02:23:41;1999.90;;;999.90;;
19495;SDS011;9888;48.606;9.630;2023-07-20T02:26:08;1999.90;;;999.90;;
19495;SDS011;9888;48.606;9.630;2023-07-20T02:28:45;1999.90;;;999.90;;
19495;SDS011;9888;48.606;9.630;2023-07-20T02:31:14;1999.90;;;999.90;;
19495;SDS011;9888;48.606;9.630;2023-07-20T02:33:42;1999.90;;;999.90;;
19495;SDS011;9888;48.606;9.630;2023-07-20T02:36:10;1999.90;;;999.90;;
19495;SDS011;9888;48.606;9.630;2023-07-20T02:38:37;1999.90;;;999.90;;
19495;SDS011;9888;48.606;9.630;2023-07-20T02:41:08;1999.90;;;999.90;;
19495;SDS011;9888;48.606;9.630;2023-07-20T02:43:41;1999.90;;;999.90;;
19495;SDS011;9888;48.606;9.630;2023-07-20T02:46:08;1999.90;;;999.90;;
19495;SDS011;9888;48.606;9.630;2023-07-20T02:48:35;1999.90;;;999.90;;
19495;SDS011;9888;48.606;9.630;2023-07-20T02:51:03;1999.90;;;999.90;;
19495;SDS011;9888;48.606;9.630;2023-07-20T02:53:35;1999.90;;;999.90;;
19495;SDS011;9888;48.606;9.630;2023-07-20T02:56:02;1999.90;;;999.90;;
19495;SDS011;9888;48.606;9.630;2023-07-20T02:58:35;1999.90;;;999.90;;
19495;SDS011;9888;48.606;9.630;2023-07-20T03:01:10;1999.90;;;999.90;;
19495;SDS011;9888;48.606;9.630;2023-07-20T03:03:38;1999.90;;;999.90;;
19495;SDS011;9888;48.606;9.630;2023-07-20T03:09:07;1999.90;;;999.90;;
19495;SDS011;9888;48.606;9.630;2023-07-20T03:11:35;1999.90;;;999.90;;
19495;SDS011;9888;48.606;9.630;2023-07-20T03:14:08;1999.90;;;999.90;;
19495;SDS011;9888;48.606;9.630;2023-07-20T03:16:36;1999.90;;;999.90;;
19495;SDS011;9888;48.606;9.630;2023-07-20T03:19:08;1999.90;;;999.90;;
19495;SDS011;9888;48.606;9.630;2023-07-20T03:21:36;1999.90;;;999.90;;
19495;SDS011;9888;48.606;9.630;2023-07-20T03:24:08;1999.90;;;999.90;;
19495;SDS011;9888;48.606;9.630;2023-07-20T03:26:37;1999.90;;;999.90;;
19495;SDS011;9888;48.606;9.630;2023-07-20T03:29:06;1999.90;;;999.90;;
19495;SDS011;9888;48.606;9.630;2023-07-20T03:31:35;1999.90;;;999.90;;
19495;SDS011;9888;48.606;9.630;2023-07-20T03:34:05;1999.90;;;999.90;;
19495;SDS011;9888;48.606;9.630;2023-07-20T03:36:44;1999.90;;;999.90;;
19495;SDS011;9888;48.606;9.630;2023-07-20T03:39:13;1999.90;;;999.90;;
19495;SDS011;9888;48.606;9.630;2023-07-20T03:41:52;1999.90;;;999.90;;
19495;SDS011;9888;48.606;9.630;2023-07-20T03:47:19;1999.90;;;999.90;;
19495;SDS011;9888;48.606;9.630;2023-07-20T03:52:50;1999.90;;;999.90;;
19495;SDS011;9888;48.606;9.630;2023-07-20T03:55:18;1999.90;;;999.90;;
19495;SDS011;9888;48.606;9.630;2023-07-20T04:04:31;1999.90;;;999.90;;
19495;SDS011;9888;48.606;9.630;2023-07-20T04:07:08;1999.90;;;999.90;;
19495;SDS011;9888;48.606;9.630;2023-07-20T04:09:43;1999.90;;;999.90;;
19495;SDS011;9888;48.606;9.630;2023-07-20T04:15:39;1999.90;;;999.90;;
19495;SDS011;9888;48.606;9.630;2023-07-20T04:18:13;1999.90;;;999.90;;
19495;SDS011;9888;48.606;9.630;2023-07-20T04:23:37;1999.90;;;999.90;;
19495;SDS011;9888;48.606;9.630;2023-07-20T04:26:05;1999.90;;;999.90;;
19495;SDS011;9888;48.606;9.630;2023-07-20T04:28:33;1999.90;;;999.90;;
19495;SDS011;9888;48.606;9.630;2023-07-20T04:31:13;1999.90;;;999.90;;
19495;SDS011;9888;48.606;9.630;2023-07-20T04:33:41;1999.90;;;999.90;;
19495;SDS011;9888;48.606;9.630;2023-07-20T04:36:11;1999.90;;;999.90;;
19495;SDS011;9888;48.606;9.630;2023-07-20T04:38:41;1999.90;;;999.90;;
19495;SDS011;9888;48.606;9.630;2023-07-20T04:41:09;1999.90;;;999.90;;
19495;SDS011;9888;48.606;9.630;2023-07-20T04:43:40;1999.90;;;999.90;;
19495;SDS011;9888;48.606;9.630;2023-07-20T04:46:18;1999.90;;;999.90;;
19495;SDS011;9888;48.606;9.630;2023-07-20T04:48:47;1999.90;;;999.90;;
19495;SDS011;9888;48.606;9.630;2023-07-20T04:58:16;1999.90;;;999.90;;
19495;SDS011;9888;48.606;9.630;2023-07-20T05:07:29;1999.90;;;999.90;;
19495;SDS011;9888;48.606;9.630;2023-07-20T05:10:00;1999.90;;;999.90;;
19495;SDS011;9888;48.606;9.630;2023-07-20T05:18:57;1999.90;;;999.90;;
19495;SDS011;9888;48.606;9.630;2023-07-20T05:21:45;1999.90;;;999.90;;
19495;SDS011;9888;48.606;9.630;2023-07-20T05:24:13;1999.90;;;999.90;;
19495;SDS011;9888;48.606;9.630;2023-07-20T05:26:49;1999.90;;;999.90;;
19495;SDS011;9888;48.606;9.630;2023-07-20T05:29:16;1999.90;;;999.90;;
19495;SDS011;9888;48.606;9.630;2023-07-20T05:31:44;1999.90;;;999.90;;
19495;SDS011;9888;48.606;9.630;2023-07-20T05:34:12;1999.90;;;999.90;;
19495;SDS011;9888;48.606;9.630;2023-07-20T05:36:41;1999.90;;;999.90;;
19495;SDS011;9888;48.606;9.630;2023-07-20T05:39:09;1999.90;;;999.90;;
19495;SDS011;9888;48.606;9.630;2023-07-20T05:41:45;1999.90;;;999.90;;
19495;SDS011;9888;48.606;9.630;2023-07-20T05:44:12;1999.90;;;999.90;;
19495;SDS011;9888;48.606;9.630;2023-07-20T05:46:46;1999.90;;;999.90;;
19495;SDS011;9888;48.606;9.630;2023-07-20T05:49:15;1999.90;;;999.90;;
19495;SDS011;9888;48.606;9.630;2023-07-20T05:51:47;1999.90;;;999.90;;
19495;SDS011;9888;48.606;9.630;2023-07-20T05:54:14;1999.90;;;999.90;;
19495;SDS011;9888;48.606;9.630;2023-07-20T05:56:42;1999.90;;;999.90;;
19495;SDS011;9888;48.606;9.630;2023-07-20T05:59:10;1999.90;;;999.90;;
19495;SDS011;9888;48.606;9.630;2023-07-20T06:01:45;1999.90;;;999.90;;
19495;SDS011;9888;48.606;9.630;2023-07-20T06:04:14;1999.90;;;999.90;;
19495;SDS011;9888;48.606;9.630;2023-07-20T06:06:44;1999.90;;;999.90;;
19495;SDS011;9888;48.606;9.630;2023-07-20T06:09:13;1999.90;;;999.90;;
19495;SDS011;9888;48.606;9.630;2023-07-20T06:11:43;1999.90;;;999.90;;
19495;SDS011;9888;48.606;9.630;2023-07-20T06:14:12;1999.90;;;999.90;;
19495;SDS011;9888;48.606;9.630;2023-07-20T06:19:38;1999.90;;;999.90;;
19495;SDS011;9888;48.606;9.630;2023-07-20T06:22:07;1999.90;;;999.90;;
19495;SDS011;9888;48.606;9.630;2023-07-20T06:24:41;1999.90;;;999.90;;
19495;SDS011;9888;48.606;9.630;2023-07-20T06:43:46;1999.90;;;999.90;;
19495;SDS011;9888;48.606;9.630;2023-07-20T06:46:21;1999.90;;;999.90;;
19495;SDS011;9888;48.606;9.630;2023-07-20T06:51:52;1999.90;;;999.90;;
19495;SDS011;9888;48.606;9.630;2023-07-20T06:54:20;1999.90;;;999.90;;
19495;SDS011;9888;48.606;9.630;2023-07-20T06:56:47;1999.90;;;999.90;;
19495;SDS011;9888;48.606;9.630;2023-07-20T06:59:18;1999.90;;;999.90;;
19495;SDS011;9888;48.606;9.630;2023-07-20T07:01:46;1999.90;;;999.90;;
19495;SDS011;9888;48.606;9.630;2023-07-20T07:04:14;1999.90;;;999.90;;
19495;SDS011;9888;48.606;9.630;2023-07-20T07:06:41;1999.90;;;999.90;;
19495;SDS011;9888;48.606;9.630;2023-07-20T07:09:10;1999.90;;;999.90;;
19495;SDS011;9888;48.606;9.630;2023-07-20T07:11:37;1999.90;;;999.90;;
19495;SDS011;9888;48.606;9.630;2023-07-20T07:14:04;1999.90;;;999.90;;
19495;SDS011;9888;48.606;9.630;2023-07-20T07:16:31;1999.90;;;999.90;;
19495;SDS011;9888;48.606;9.630;2023-07-20T07:18:58;1999.90;;;999.90;;
19495;SDS011;9888;48.606;9.630;2023-07-20T07:21:25;1999.90;;;999.90;;
19495;SDS011;9888;48.606;9.630;2023-07-20T07:30:39;1999.90;;;999.90;;
19495;SDS011;9888;48.606;9.630;2023-07-20T07:33:07;1999.90;;;999.90;;
19495;SDS011;9888;48.606;9.630;2023-07-20T07:35:35;1999.90;;;999.90;;
19495;SDS011;9888;48.606;9.630;2023-07-20T07:38:03;1999.90;;;999.90;;
19495;SDS011;9888;48.606;9.630;2023-07-20T07:40:34;1999.90;;;999.90;;
19495;SDS011;9888;48.606;9.630;2023-07-20T07:43:02;1999.90;;;999.90;;
19495;SDS011;9888;48.606;9.630;2023-07-20T07:45:34;1999.90;;;999.90;;
19495;SDS011;9888;48.606;9.630;2023-07-20T07:48:06;1999.90;;;999.90;;
19495;SDS011;9888;48.606;9.630;2023-07-20T07:50:36;1999.90;;;999.90;;
19495;SDS011;9888;48.606;9.630;2023-07-20T07:53:07;1999.90;;;999.90;;
19495;SDS011;9888;48.606;9.630;2023-07-20T07:55:35;1999.90;;;999.90;;
19495;SDS011;9888;48.606;9.630;2023-07-20T07:58:02;1999.90;;;999.90;;
19495;SDS011;9888;48.606;9.630;2023-07-20T08:03:34;1999.90;;;999.90;;
19495;SDS011;9888;48.606;9.630;2023-07-20T08:06:04;1999.90;;;999.90;;
19495;SDS011;9888;48.606;9.630;2023-07-20T08:08:31;1999.90;;;999.90;;
19495;SDS011;9888;48.606;9.630;2023-07-20T08:11:00;1999.90;;;999.90;;
19495;SDS011;9888;48.606;9.630;2023-07-20T08:13:27;1999.90;;;999.90;;
19495;SDS011;9888;48.606;9.630;2023-07-20T08:15:57;1999.90;;;999.90;;
19495;SDS011;9888;48.606;9.630;2023-07-20T08:18:40;1445.37;;;696.13;;
19495;SDS011;9888;48.606;9.630;2023-07-20T08:21:10;1999.90;;;999.90;;
19495;SDS011;9888;48.606;9.630;2023-07-20T08:23:38;1999.90;;;999.90;;
19495;SDS011;9888;48.606;9.630;2023-07-20T08:26:04;1999.90;;;999.90;;
19495;SDS011;9888;48.606;9.630;2023-07-20T08:28:33;1999.90;;;999.90;;
19495;SDS011;9888;48.606;9.630;2023-07-20T08:31:02;1999.90;;;999.90;;
19495;SDS011;9888;48.606;9.630;2023-07-20T08:33:38;1999.90;;;999.90;;
19495;SDS011;9888;48.606;9.630;2023-07-20T08:36:06;1999.90;;;999.90;;
19495;SDS011;9888;48.606;9.630;2023-07-20T08:38:34;1999.90;;;999.90;;
19495;SDS011;9888;48.606;9.630;2023-07-20T08:41:01;1999.90;;;999.90;;
19495;SDS011;9888;48.606;9.630;2023-07-20T08:43:28;1999.90;;;999.90;;
19495;SDS011;9888;48.606;9.630;2023-07-20T08:45:57;1999.90;;;999.90;;
19495;SDS011;9888;48.606;9.630;2023-07-20T08:48:25;1999.90;;;999.90;;
19495;SDS011;9888;48.606;9.630;2023-07-20T08:50:54;1999.90;;;999.90;;
19495;SDS011;9888;48.606;9.630;2023-07-20T08:53:26;1999.90;;;999.90;;
19495;SDS011;9888;48.606;9.630;2023-07-20T08:55:56;1999.90;;;999.90;;
19495;SDS011;9888;48.606;9.630;2023-07-20T08:58:28;1999.90;;;999.90;;
19495;SDS011;9888;48.606;9.630;2023-07-20T09:01:37;1999.90;;;999.90;;
19495;SDS011;9888;48.606;9.630;2023-07-20T09:04:06;1999.90;;;999.90;;
19495;SDS011;9888;48.606;9.630;2023-07-20T09:06:33;1999.90;;;999.90;;
19495;SDS011;9888;48.606;9.630;2023-07-20T09:09:02;1999.90;;;999.90;;
19495;SDS011;9888;48.606;9.630;2023-07-20T09:11:29;1999.90;;;999.90;;
19495;SDS011;9888;48.606;9.630;2023-07-20T09:14:07;1999.90;;;999.90;;
19495;SDS011;9888;48.606;9.630;2023-07-20T09:16:54;1999.90;;;999.90;;
19495;SDS011;9888;48.606;9.630;2023-07-20T09:19:23;1999.90;;;999.90;;
19495;SDS011;9888;48.606;9.630;2023-07-20T09:21:51;1999.90;;;999.90;;
19495;SDS011;9888;48.606;9.630;2023-07-20T09:24:18;1999.90;;;999.90;;
19495;SDS011;9888;48.606;9.630;2023-07-20T09:26:47;1999.90;;;999.90;;
19495;SDS011;9888;48.606;9.630;2023-07-20T09:29:21;1999.90;;;999.90;;
19495;SDS011;9888;48.606;9.630;2023-07-20T09:32:01;1999.90;;;999.90;;
19495;SDS011;9888;48.606;9.630;2023-07-20T09:34:31;1999.90;;;999.90;;
19495;SDS011;9888;48.606;9.630;2023-07-20T09:36:59;1999.90;;;999.90;;
19495;SDS011;9888;48.606;9.630;2023-07-20T09:39:29;1999.90;;;999.90;;
19495;SDS011;9888;48.606;9.630;2023-07-20T09:42:06;1999.90;;;999.90;;
19495;SDS011;9888;48.606;9.630;2023-07-20T09:44:33;248.93;;;224.73;;
19495;SDS011;9888;48.606;9.630;2023-07-20T09:47:02;1999.90;;;999.90;;
19495;SDS011;9888;48.606;9.630;2023-07-20T09:49:29;1999.90;;;999.90;;
19495;SDS011;9888;48.606;9.630;2023-07-20T09:51:59;1999.90;;;999.90;;
19495;SDS011;9888;48.606;9.630;2023-07-20T09:54:29;1999.90;;;999.90;;
19495;SDS011;9888;48.606;9.630;2023-07-20T09:57:00;1999.90;;;999.90;;
19495;SDS011;9888;48.606;9.630;2023-07-20T09:59:28;1465.60;;;754.90;;
19495;SDS011;9888;48.606;9.630;2023-07-20T10:04:52;1999.90;;;999.90;;
19495;SDS011;9888;48.606;9.630;2023-07-20T10:07:21;1999.90;;;999.90;;
19495;SDS011;9888;48.606;9.630;2023-07-20T10:09:55;1999.90;;;999.90;;
19495;SDS011;9888;48.606;9.630;2023-07-20T10:15:46;1999.90;;;999.90;;
19495;SDS011;9888;48.606;9.630;2023-07-20T10:20:54;1999.90;;;999.90;;
19495;SDS011;9888;48.606;9.630;2023-07-20T10:23:22;1999.90;;;999.90;;
19495;SDS011;9888;48.606;9.630;2023-07-20T10:25:50;1999.90;;;999.90;;
19495;SDS011;9888;48.606;9.630;2023-07-20T10:28:18;1999.90;;;999.90;;
19495;SDS011;9888;48.606;9.630;2023-07-20T10:30:47;1999.90;;;999.90;;
19495;SDS011;9888;48.606;9.630;2023-07-20T10:33:16;1999.90;;;999.90;;
19495;SDS011;9888;48.606;9.630;2023-07-20T10:35:54;1052.10;;;949.37;;
19495;SDS011;9888;48.606;9.630;2023-07-20T10:38:39;1098.23;;;984.83;;
19495;SDS011;9888;48.606;9.630;2023-07-20T10:41:18;1261.20;;;861.60;;
19495;SDS011;9888;48.606;9.630;2023-07-20T10:43:48;1999.90;;;999.90;;
19495;SDS011;9888;48.606;9.630;2023-07-20T10:46:41;1660.60;;;959.17;;
19495;SDS011;9888;48.606;9.630;2023-07-20T10:49:16;1279.57;;;881.47;;
19495;SDS011;9888;48.606;9.630;2023-07-20T10:55:16;931.30;;;831.83;;
19495;SDS011;9888;48.606;9.630;2023-07-20T10:58:05;1257.57;;;861.67;;
19495;SDS011;9888;48.606;9.630;2023-07-20T11:03:31;1572.03;;;838.80;;
19495;SDS011;9888;48.606;9.630;2023-07-20T11:05:59;1999.90;;;999.90;;
19495;SDS011;9888;48.606;9.630;2023-07-20T11:08:46;1610.73;;;913.63;;
19495;SDS011;9888;48.606;9.630;2023-07-20T11:11:23;1122.93;;;883.37;;
19495;SDS011;9888;48.606;9.630;2023-07-20T11:13:56;1999.90;;;999.90;;
19495;SDS011;9888;48.606;9.630;2023-07-20T11:16:52;1294.77;;;895.93;;
19495;SDS011;9888;48.606;9.630;2023-07-20T11:19:20;1366.83;;;962.43;;
19495;SDS011;9888;48.606;9.630;2023-07-20T11:21:55;1099.57;;;990.30;;
19495;SDS011;9888;48.606;9.630;2023-07-20T11:24:23;1359.70;;;956.80;;
19495;SDS011;9888;48.606;9.630;2023-07-20T11:26:56;1392.87;;;986.87;;
19495;SDS011;9888;48.606;9.630;2023-07-20T11:29:27;1999.90;;;999.90;;
19495;SDS011;9888;48.606;9.630;2023-07-20T11:31:57;1654.17;;;952.57;;
19495;SDS011;9888;48.606;9.630;2023-07-20T11:34:31;1111.00;;;995.77;;
19495;SDS011;9888;48.606;9.630;2023-07-20T11:37:00;1142.87;;;999.90;;
19495;SDS011;9888;48.606;9.630;2023-07-20T11:39:29;1211.23;;;999.90;;
19495;SDS011;9888;48.606;9.630;2023-07-20T11:42:02;1188.60;;;999.90;;
19495;SDS011;9888;48.606;9.630;2023-07-20T11:44:31;1130.70;;;998.93;;
19495;SDS011;9888;48.606;9.630;2023-07-20T11:49:42;1166.83;;;999.90;;
19495;SDS011;9888;48.606;9.630;2023-07-20T11:52:16;1164.13;;;999.90;;
19495;SDS011;9888;48.606;9.630;2023-07-20T11:54:46;1133.40;;;999.70;;
19495;SDS011;9888;48.606;9.630;2023-07-20T11:57:17;1081.50;;;969.77;;
19495;SDS011;9888;48.606;9.630;2023-07-20T12:02:45;1156.50;;;999.90;;
19495;SDS011;9888;48.606;9.630;2023-07-20T12:05:15;1119.57;;;996.10;;
19495;SDS011;9888;48.606;9.630;2023-07-20T12:07:45;1109.47;;;989.27;;
19495;SDS011;9888;48.606;9.630;2023-07-20T12:10:14;1074.30;;;962.83;;
19495;SDS011;9888;48.606;9.630;2023-07-20T12:12:43;1111.13;;;989.00;;
19495;SDS011;9888;48.606;9.630;2023-07-20T12:15:25;1097.50;;;984.07;;
19495;SDS011;9888;48.606;9.630;2023-07-20T12:17:57;1143.37;;;999.90;;
19495;SDS011;9888;48.606;9.630;2023-07-20T12:20:30;1351.13;;;943.37;;
19495;SDS011;9888;48.606;9.630;2023-07-20T12:23:17;1674.20;;;969.73;;
19495;SDS011;9888;48.606;9.630;2023-07-20T12:25:45;1117.50;;;977.70;;
19495;SDS011;9888;48.606;9.630;2023-07-20T12:28:14;1212.07;;;999.90;;
19495;SDS011;9888;48.606;9.630;2023-07-20T12:30:46;1214.37;;;677.83;;
19495;SDS011;9888;48.606;9.630;2023-07-20T12:33:23;1219.87;;;999.90;;
19495;SDS011;9888;48.606;9.630;2023-07-20T12:42:35;1264.90;;;999.90;;
19495;SDS011;9888;48.606;9.630;2023-07-20T12:45:04;1330.50;;;999.90;;
19495;SDS011;9888;48.606;9.630;2023-07-20T12:47:36;1339.13;;;999.90;;
19495;SDS011;9888;48.606;9.630;2023-07-20T12:50:05;1267.47;;;999.90;;
19495;SDS011;9888;48.606;9.630;2023-07-20T12:52:35;1280.43;;;999.90;;
19495;SDS011;9888;48.606;9.630;2023-07-20T12:55:48;1269.50;;;999.90;;
19495;SDS011;9888;48.606;9.630;2023-07-20T12:58:18;1305.70;;;999.90;;
19495;SDS011;9888;48.606;9.630;2023-07-20T13:00:49;1385.37;;;999.90;;
19495;SDS011;9888;48.606;9.630;2023-07-20T13:03:24;1452.27;;;999.90;;
19495;SDS011;9888;48.606;9.630;2023-07-20T13:06:08;1360.40;;;999.90;;
19495;SDS011;9888;48.606;9.630;2023-07-20T13:08:37;1406.73;;;999.90;;
19495;SDS011;9888;48.606;9.630;2023-07-20T13:11:15;1411.33;;;999.90;;
19495;SDS011;9888;48.606;9.630;2023-07-20T22:13:40;1999.90;;;999.90;;
19495;SDS011;9888;48.606;9.630;2023-07-20T22:16:09;1999.90;;;999.90;;
19495;SDS011;9888;48.606;9.630;2023-07-20T22:18:38;1999.90;;;999.90;;
19495;SDS011;9888;48.606;9.630;2023-07-20T22:21:07;1999.90;;;999.90;;
19495;SDS011;9888;48.606;9.630;2023-07-20T22:23:37;1999.90;;;999.90;;
19495;SDS011;9888;48.606;9.630;2023-07-20T22:26:06;1999.90;;;999.90;;
19495;SDS011;9888;48.606;9.630;2023-07-20T22:28:34;1999.90;;;999.90;;
19495;SDS011;9888;48.606;9.630;2023-07-20T22:31:01;1999.90;;;999.90;;
19495;SDS011;9888;48.606;9.630;2023-07-20T22:33:29;1999.90;;;999.90;;
19495;SDS011;9888;48.606;9.630;2023-07-20T22:35:56;1999.90;;;999.90;;
19495;SDS011;9888;48.606;9.630;2023-07-20T22:38:24;1999.90;;;999.90;;
19495;SDS011;9888;48.606;9.630;2023-07-20T22:40:52;1999.90;;;999.90;;
19495;SDS011;9888;48.606;9.630;2023-07-20T22:43:20;1999.90;;;999.90;;
19495;SDS011;9888;48.606;9.630;2023-07-20T22:45:54;1999.90;;;999.90;;
19495;SDS011;9888;48.606;9.630;2023-07-20T22:48:21;1999.90;;;999.90;;
19495;SDS011;9888;48.606;9.630;2023-07-20T22:50:54;1999.90;;;999.90;;
19495;SDS011;9888;48.606;9.630;2023-07-20T22:53:26;1999.90;;;999.90;;
19495;SDS011;9888;48.606;9.630;2023-07-20T22:55:56;1999.90;;;999.90;;
19495;SDS011;9888;48.606;9.630;2023-07-20T22:58:26;1999.90;;;999.90;;
19495;SDS011;9888;48.606;9.630;2023-07-20T23:00:54;1999.90;;;999.90;;
19495;SDS011;9888;48.606;9.630;2023-07-20T23:03:22;1999.90;;;999.90;;
19495;SDS011;9888;48.606;9.630;2023-07-20T23:05:51;1999.90;;;999.90;;
19495;SDS011;9888;48.606;9.630;2023-07-20T23:08:19;1999.90;;;999.90;;
19495;SDS011;9888;48.606;9.630;2023-07-20T23:10:46;1999.90;;;999.90;;
19495;SDS011;9888;48.606;9.630;2023-07-20T23:13:15;1999.90;;;999.90;;
19495;SDS011;9888;48.606;9.630;2023-07-20T23:15:43;1999.90;;;999.90;;
19495;SDS011;9888;48.606;9.630;2023-07-20T23:18:12;1999.90;;;999.90;;
19495;SDS011;9888;48.606;9.630;2023-07-20T23:20:39;1999.90;;;999.90;;
19495;SDS011;9888;48.606;9.630;2023-07-20T23:23:06;1999.90;;;999.90;;
19495;SDS011;9888;48.606;9.630;2023-07-20T23:25:35;1999.90;;;999.90;;
19495;SDS011;9888;48.606;9.630;2023-07-20T23:28:04;1999.90;;;999.90;;
19495;SDS011;9888;48.606;9.630;2023-07-20T23:30:32;1999.90;;;999.90;;
19495;SDS011;9888;48.606;9.630;2023-07-20T23:33:02;1999.90;;;999.90;;
19495;SDS011;9888;48.606;9.630;2023-07-20T23:35:30;1999.90;;;999.90;;
19495;SDS011;9888;48.606;9.630;2023-07-20T23:37:58;1999.90;;;999.90;;
19495;SDS011;9888;48.606;9.630;2023-07-20T23:40:26;1999.90;;;999.90;;
19495;SDS011;9888;48.606;9.630;2023-07-20T23:42:58;1999.90;;;999.90;;
19495;SDS011;9888;48.606;9.630;2023-07-20T23:45:27;1999.90;;;999.90;;
19495;SDS011;9888;48.606;9.630;2023-07-20T23:47:56;1999.90;;;999.90;;
19495;SDS011;9888;48.606;9.630;2023-07-20T23:50:25;1999.90;;;999.90;;
19495;SDS011;9888;48.606;9.630;2023-07-20T23:53:07;1999.90;;;999.90;;
19495;SDS011;9888;48.606;9.630;2023-07-20T23:55:36;1999.90;;;999.90;;
19495;SDS011;9888;48.606;9.630;2023-07-20T23:58:04;1999.90;;;999.90;;
